createdAt,value
2023-05-16T00:00:28.808Z,95499.84
2023-05-16T00:01:30.546Z,95497.78
2023-05-16T00:02:32.480Z,95494.56
2023-05-16T00:03:34.495Z,95493.94
2023-05-16T00:04:36.698Z,95493.13
2023-05-16T00:05:38.836Z,95490.91
2023-05-16T00:06:40.668Z,95486.09
2023-05-16T00:07:43.983Z,95486.88
2023-05-16T00:08:45.603Z,95488.63
2023-05-16T00:09:47.367Z,95494.06
2023-05-16T00:10:49.012Z,95491.22
2023-05-16T00:11:50.950Z,95500.81
2023-05-16T00:12:52.590Z,95494.06
2023-05-16T00:13:54.412Z,95502.41
2023-05-16T00:14:57.072Z,95497.94
2023-05-16T00:16:02.644Z,95487.34
2023-05-16T00:17:11.501Z,95498.38
2023-05-16T00:18:16.991Z,95493.28
2023-05-16T00:19:18.848Z,95485.56
2023-05-16T00:20:23.571Z,95498.53
2023-05-16T00:21:25.529Z,95493.72
2023-05-16T00:22:27.412Z,95497.25
2023-05-16T00:23:29.082Z,95494.50
2023-05-16T00:24:30.797Z,95489.56
2023-05-16T00:25:32.398Z,95495.50
2023-05-16T00:26:34.044Z,95493.41
2023-05-16T00:27:36.419Z,95488.94
2023-05-16T00:28:38.018Z,95493.91
2023-05-16T00:29:39.620Z,95498.06
2023-05-16T00:30:41.399Z,95491.50
2023-05-16T00:31:43.060Z,95488.94
2023-05-16T00:32:46.173Z,95495.97
2023-05-16T00:33:48.035Z,95495.50
2023-05-16T00:34:49.611Z,95493.91
2023-05-16T00:35:51.683Z,95492.91
2023-05-16T00:36:53.905Z,95490.19
2023-05-16T00:37:56.326Z,95495.47
2023-05-16T00:38:57.901Z,95492.88
2023-05-16T00:39:59.496Z,95494.50
2023-05-16T00:41:01.169Z,95486.03
2023-05-16T00:42:03.955Z,95495.81
2023-05-16T00:43:06.329Z,95491.59
2023-05-16T00:44:07.972Z,95486.81
2023-05-16T00:45:10.419Z,95493.25
2023-05-16T00:46:12.244Z,95484.41
2023-05-16T00:47:14.672Z,95491.16
2023-05-16T00:48:16.442Z,95494.84
2023-05-16T00:49:18.334Z,95488.75
2023-05-16T00:50:20.035Z,95488.22
2023-05-16T00:51:21.735Z,95487.09
2023-05-16T00:52:23.709Z,95482.47
2023-05-16T00:53:25.642Z,95479.41
2023-05-16T00:54:29.198Z,95480.19
2023-05-16T00:55:31.308Z,95482.47
2023-05-16T00:56:33.635Z,95482.50
2023-05-16T00:57:35.687Z,95474.50
2023-05-16T00:58:37.718Z,95473.22
2023-05-16T00:59:40.221Z,95472.63
2023-05-16T01:00:41.803Z,95474.38
2023-05-16T01:01:46.644Z,95476.47
2023-05-16T01:02:48.494Z,95473.91
2023-05-16T01:03:51.728Z,95469.91
2023-05-16T01:04:53.338Z,95469.59
2023-05-16T01:05:55.511Z,95468.97
2023-05-16T01:06:57.221Z,95463.34
2023-05-16T01:07:58.892Z,95469.28
2023-05-16T01:09:00.603Z,95471.69
2023-05-16T01:10:03.597Z,95473.63
2023-05-16T01:11:23.704Z,95475.34
2023-05-16T01:12:33.584Z,95477.63
2023-05-16T01:14:07.078Z,95480.34
2023-05-16T01:15:11.364Z,95474.88
2023-05-16T01:16:18.936Z,95480.94
2023-05-16T01:17:25.261Z,95473.25
2023-05-16T01:18:37.526Z,95469.75
2023-05-16T01:19:41.962Z,95477.75
2023-05-16T01:21:03.957Z,95468.91
2023-05-16T01:22:32.143Z,95470.84
2023-05-16T01:23:43.211Z,95466.19
2023-05-16T01:25:29.684Z,95462.38
2023-05-16T01:26:32.646Z,95453.41
2023-05-16T01:27:35.785Z,95464.47
2023-05-16T01:28:38.240Z,95472.00
2023-05-16T01:29:39.791Z,95451.31
2023-05-16T01:30:41.663Z,95462.09
2023-05-16T01:31:43.380Z,95458.09
2023-05-16T01:32:45.422Z,95460.63
2023-05-16T01:33:47.622Z,95466.41
2023-05-16T01:34:52.242Z,95448.63
2023-05-16T01:35:58.261Z,95461.44
2023-05-16T01:37:21.880Z,95453.56
2023-05-16T01:38:27.035Z,95459.69
2023-05-16T01:39:55.679Z,95462.22
2023-05-16T01:41:24.198Z,95458.09
2023-05-16T01:42:29.185Z,95456.00
2023-05-16T01:43:45.405Z,95440.97
2023-05-16T01:45:00.549Z,95446.09
2023-05-16T01:46:10.942Z,95453.28
2023-05-16T01:47:14.030Z,95449.94
2023-05-16T01:48:22.880Z,95452.78
2023-05-16T01:49:36.191Z,95453.09
2023-05-16T01:50:42.372Z,95447.34
2023-05-16T01:51:51.764Z,95452.66
2023-05-16T01:53:17.026Z,95451.03
2023-05-16T01:54:20.475Z,95445.91
2023-05-16T01:55:24.270Z,95444.16
2023-05-16T01:56:26.812Z,95441.91
2023-05-16T01:57:28.275Z,95449.75
2023-05-16T01:58:32.299Z,95442.53
2023-05-16T01:59:34.123Z,95442.69
2023-05-16T02:00:35.954Z,95442.06
2023-05-16T02:01:38.193Z,95445.88
2023-05-16T02:02:39.930Z,95441.38
2023-05-16T02:03:41.639Z,95437.38
2023-05-16T02:04:43.436Z,95436.59
2023-05-16T02:05:45.058Z,95436.59
2023-05-16T02:06:48.889Z,95435.94
2023-05-16T02:07:51.768Z,95442.34
2023-05-16T02:08:53.351Z,95437.22
2023-05-16T02:09:54.918Z,95444.41
2023-05-16T02:10:56.559Z,95442.03
2023-05-16T02:11:58.127Z,95440.75
2023-05-16T02:12:59.791Z,95444.63
2023-05-16T02:14:01.377Z,95440.91
2023-05-16T02:15:03.019Z,95451.66
2023-05-16T02:16:04.741Z,95449.91
2023-05-16T02:17:06.483Z,95444.94
2023-05-16T02:18:09.269Z,95442.56
2023-05-16T02:19:11.209Z,95448.63
2023-05-16T02:20:13.827Z,95448.94
2023-05-16T02:21:15.489Z,95454.88
2023-05-16T02:22:17.103Z,95448.16
2023-05-16T02:23:18.686Z,95453.28
2023-05-16T02:24:20.598Z,95458.41
2023-05-16T02:25:22.181Z,95464.28
2023-05-16T02:26:23.726Z,95454.50
2023-05-16T02:27:25.508Z,95445.09
2023-05-16T02:28:27.081Z,95444.31
2023-05-16T02:29:28.674Z,95451.03
2023-05-16T02:30:30.276Z,95456.78
2023-05-16T02:31:33.456Z,95454.69
2023-05-16T02:32:35.398Z,95452.66
2023-05-16T02:33:36.990Z,95450.69
2023-05-16T02:34:38.582Z,95451.97
2023-05-16T02:35:40.222Z,95443.31
2023-05-16T02:36:41.781Z,95461.94
2023-05-16T02:37:44.154Z,95455.03
2023-05-16T02:38:45.834Z,95451.84
2023-05-16T02:39:47.453Z,95455.81
2023-05-16T02:40:49.375Z,95456.94
2023-05-16T02:41:50.985Z,95450.38
2023-05-16T02:42:52.662Z,95462.56
2023-05-16T02:43:54.224Z,95463.84
2023-05-16T02:44:55.923Z,95459.53
2023-05-16T02:45:58.986Z,95454.22
2023-05-16T02:47:00.730Z,95459.84
2023-05-16T02:48:02.365Z,95461.13
2023-05-16T02:49:03.989Z,95453.28
2023-05-16T02:50:06.075Z,95466.09
2023-05-16T02:51:09.132Z,95455.38
2023-05-16T02:52:11.818Z,95452.34
2023-05-16T02:53:13.755Z,95452.78
2023-05-16T02:54:15.562Z,95443.34
2023-05-16T02:55:22.318Z,95453.75
2023-05-16T02:56:24.385Z,95451.34
2023-05-16T02:57:26.224Z,95448.31
2023-05-16T02:58:27.817Z,95450.22
2023-05-16T02:59:29.430Z,95440.78
2023-05-16T03:00:31.011Z,95448.94
2023-05-16T03:01:32.713Z,95453.09
2023-05-16T03:02:34.517Z,95437.09
2023-05-16T03:03:37.544Z,95435.47
2023-05-16T03:04:39.290Z,95437.44
2023-05-16T03:05:40.890Z,95438.56
2023-05-16T03:06:42.609Z,95453.44
2023-05-16T03:07:44.140Z,95442.72
2023-05-16T03:08:45.774Z,95447.66
2023-05-16T03:09:47.349Z,95440.47
2023-05-16T03:10:48.936Z,95440.31
2023-05-16T03:11:50.649Z,95445.13
2023-05-16T03:12:54.536Z,95450.56
2023-05-16T03:13:56.946Z,95447.22
2023-05-16T03:14:58.991Z,95447.34
2023-05-16T03:16:00.814Z,95450.72
2023-05-16T03:17:02.439Z,95450.06
2023-05-16T03:18:04.270Z,95448.66
2023-05-16T03:19:06.020Z,95454.09
2023-05-16T03:20:09.406Z,95457.13
2023-05-16T03:21:11.022Z,95463.22
2023-05-16T03:22:12.720Z,95447.66
2023-05-16T03:23:18.054Z,95457.28
2023-05-16T03:24:21.708Z,95454.72
2023-05-16T03:25:23.386Z,95452.66
2023-05-16T03:26:25.801Z,95460.66
2023-05-16T03:27:27.848Z,95458.22
2023-05-16T03:28:29.407Z,95461.44
2023-05-16T03:29:31.201Z,95461.44
2023-05-16T03:30:32.904Z,95467.06
2023-05-16T03:31:34.667Z,95463.03
2023-05-16T03:32:38.010Z,95463.53
2023-05-16T03:33:39.620Z,95454.88
2023-05-16T03:34:41.215Z,95467.19
2023-05-16T03:35:43.596Z,95459.84
2023-05-16T03:36:45.239Z,95466.72
2023-05-16T03:37:46.859Z,95457.91
2023-05-16T03:38:48.816Z,95464.97
2023-05-16T03:39:50.943Z,95463.84
2023-05-16T03:40:53.195Z,95463.19
2023-05-16T03:41:57.237Z,95460.16
2023-05-16T03:42:58.864Z,95472.31
2023-05-16T03:44:00.702Z,95465.75
2023-05-16T03:45:02.375Z,95461.25
2023-05-16T03:46:04.169Z,95459.19
2023-05-16T03:47:06.364Z,95461.25
2023-05-16T03:48:09.323Z,95456.28
2023-05-16T03:49:10.953Z,95460.75
2023-05-16T03:50:12.820Z,95457.56
2023-05-16T03:51:14.398Z,95461.56
2023-05-16T03:52:16.061Z,95454.84
2023-05-16T03:53:17.754Z,95471.97
2023-05-16T03:54:19.335Z,95466.06
2023-05-16T03:55:21.520Z,95463.97
2023-05-16T03:56:23.144Z,95466.69
2023-05-16T03:57:24.782Z,95451.84
2023-05-16T03:58:26.412Z,95468.31
2023-05-16T03:59:27.986Z,95466.72
2023-05-16T04:00:29.736Z,95466.72
2023-05-16T04:01:31.362Z,95453.59
2023-05-16T04:02:32.954Z,95459.66
2023-05-16T04:03:34.673Z,95464.16
2023-05-16T04:04:36.349Z,95463.97
2023-05-16T04:05:37.985Z,95460.81
2023-05-16T04:06:39.704Z,95468.63
2023-05-16T04:07:41.502Z,95462.22
2023-05-16T04:08:44.903Z,95468.00
2023-05-16T04:09:46.498Z,95472.63
2023-05-16T04:10:48.081Z,95465.75
2023-05-16T04:11:49.736Z,95474.41
2023-05-16T04:12:51.583Z,95469.59
2023-05-16T04:13:54.122Z,95472.94
2023-05-16T04:14:55.644Z,95475.66
2023-05-16T04:15:57.237Z,95471.19
2023-05-16T04:16:58.863Z,95465.59
2023-05-16T04:18:00.462Z,95477.13
2023-05-16T04:19:02.211Z,95476.97
2023-05-16T04:20:04.887Z,95458.72
2023-05-16T04:21:06.536Z,95472.97
2023-05-16T04:22:08.217Z,95468.19
2023-05-16T04:23:13.280Z,95468.66
2023-05-16T04:24:14.954Z,95465.13
2023-05-16T04:25:17.180Z,95457.13
2023-05-16T04:26:19.021Z,95462.88
2023-05-16T04:27:20.654Z,95465.94
2023-05-16T04:28:22.403Z,95463.69
2023-05-16T04:29:24.050Z,95457.44
2023-05-16T04:30:25.874Z,95463.69
2023-05-16T04:31:27.657Z,95459.69
2023-05-16T04:32:29.281Z,95465.59
2023-05-16T04:33:30.930Z,95467.53
2023-05-16T04:34:33.936Z,95461.09
2023-05-16T04:35:35.604Z,95463.69
2023-05-16T04:36:37.208Z,95456.59
2023-05-16T04:37:38.793Z,95463.00
2023-05-16T04:38:40.483Z,95453.41
2023-05-16T04:39:42.653Z,95464.56
2023-05-16T04:40:44.219Z,95467.59
2023-05-16T04:41:46.001Z,95453.06
2023-05-16T04:42:47.642Z,95453.03
2023-05-16T04:43:49.315Z,95457.38
2023-05-16T04:44:50.848Z,95459.75
2023-05-16T04:45:54.078Z,95464.06
2023-05-16T04:46:55.833Z,95465.47
2023-05-16T04:47:57.704Z,95464.25
2023-05-16T04:48:59.304Z,95456.25
2023-05-16T04:50:01.062Z,95460.44
2023-05-16T04:51:02.658Z,95452.00
2023-05-16T04:52:04.673Z,95459.06
2023-05-16T04:53:06.257Z,95455.31
2023-05-16T04:54:08.812Z,95456.31
2023-05-16T04:55:10.654Z,95459.84
2023-05-16T04:56:12.258Z,95462.44
2023-05-16T04:57:13.889Z,95457.31
2023-05-16T04:58:15.934Z,95458.47
2023-05-16T04:59:17.506Z,95458.03
2023-05-16T05:00:19.408Z,95465.91
2023-05-16T05:01:21.031Z,95462.81
2023-05-16T05:02:22.755Z,95465.53
2023-05-16T05:03:24.388Z,95462.53
2023-05-16T05:04:26.095Z,95468.00
2023-05-16T05:05:28.003Z,95466.38
2023-05-16T05:06:29.889Z,95461.63
2023-05-16T05:07:32.451Z,95467.91
2023-05-16T05:08:34.133Z,95468.03
2023-05-16T05:09:35.788Z,95466.09
2023-05-16T05:10:37.374Z,95464.75
2023-05-16T05:11:38.979Z,95468.91
2023-05-16T05:12:40.696Z,95465.03
2023-05-16T05:13:42.270Z,95465.66
2023-05-16T05:14:43.946Z,95455.38
2023-05-16T05:15:45.740Z,95470.25
2023-05-16T05:16:47.395Z,95456.00
2023-05-16T05:17:49.201Z,95467.19
2023-05-16T05:18:51.015Z,95460.47
2023-05-16T05:19:52.714Z,95464.19
2023-05-16T05:20:54.304Z,95460.53
2023-05-16T05:21:55.865Z,95460.94
2023-05-16T05:22:57.416Z,95466.91
2023-05-16T05:23:59.040Z,95465.59
2023-05-16T05:25:00.689Z,95453.88
2023-05-16T05:26:02.304Z,95459.06
2023-05-16T05:27:03.966Z,95456.13
2023-05-16T05:28:06.098Z,95449.97
2023-05-16T05:29:07.886Z,95461.94
2023-05-16T05:30:09.899Z,95460.16
2023-05-16T05:31:11.524Z,95462.00
2023-05-16T05:32:13.201Z,95453.63
2023-05-16T05:33:17.753Z,95457.59
2023-05-16T05:34:19.331Z,95460.47
2023-05-16T05:35:21.280Z,95458.91
2023-05-16T05:36:22.883Z,95463.03
2023-05-16T05:37:25.392Z,95459.28
2023-05-16T05:38:26.887Z,95454.31
2023-05-16T05:39:28.433Z,95458.28
2023-05-16T05:40:30.068Z,95452.94
2023-05-16T05:41:31.735Z,95452.72
2023-05-16T05:42:33.911Z,95457.28
2023-05-16T05:43:35.605Z,95452.25
2023-05-16T05:44:37.829Z,95453.03
2023-05-16T05:45:39.501Z,95452.75
2023-05-16T05:46:41.378Z,95444.97
2023-05-16T05:47:43.457Z,95455.69
2023-05-16T05:48:45.112Z,95460.72
2023-05-16T05:49:46.754Z,95455.38
2023-05-16T05:50:48.557Z,95466.84
2023-05-16T05:51:52.236Z,95457.31
2023-05-16T05:52:54.756Z,95458.56
2023-05-16T05:53:56.235Z,95468.25
2023-05-16T05:54:59.450Z,95468.72
2023-05-16T05:56:01.050Z,95468.38
2023-05-16T05:57:02.660Z,95472.69
2023-05-16T05:58:05.675Z,95470.19
2023-05-16T05:59:08.791Z,95453.84
2023-05-16T06:00:11.543Z,95473.00
2023-05-16T06:01:13.313Z,95457.09
2023-05-16T06:02:15.150Z,95457.88
2023-05-16T06:03:17.061Z,95451.38
2023-05-16T06:04:22.070Z,95462.31
2023-05-16T06:05:23.979Z,95460.91
2023-05-16T06:06:25.753Z,95455.91
2023-05-16T06:07:27.321Z,95460.50
2023-05-16T06:08:28.904Z,95451.22
2023-05-16T06:09:30.891Z,95453.84
2023-05-16T06:10:32.484Z,95461.69
2023-05-16T06:11:34.057Z,95456.81
2023-05-16T06:12:35.806Z,95459.75
2023-05-16T06:13:37.413Z,95450.88
2023-05-16T06:14:39.512Z,95463.47
2023-05-16T06:15:41.314Z,95464.25
2023-05-16T06:16:42.990Z,95460.03
2023-05-16T06:17:44.637Z,95464.72
2023-05-16T06:18:46.492Z,95462.19
2023-05-16T06:19:48.086Z,95471.44
2023-05-16T06:20:50.518Z,95468.47
2023-05-16T06:21:52.151Z,95470.31
2023-05-16T06:22:53.730Z,95472.22
2023-05-16T06:23:55.421Z,95456.38
2023-05-16T06:24:56.973Z,95469.03
2023-05-16T06:25:58.535Z,95462.47
2023-05-16T06:27:00.091Z,95475.84
2023-05-16T06:28:01.768Z,95470.28
2023-05-16T06:29:03.366Z,95471.41
2023-05-16T06:30:05.674Z,95473.47
2023-05-16T06:31:07.278Z,95475.53
2023-05-16T06:32:10.406Z,95476.22
2023-05-16T06:33:15.708Z,95472.44
2023-05-16T06:34:17.288Z,95472.91
2023-05-16T06:35:19.114Z,95478.91
2023-05-16T06:36:20.809Z,95477.97
2023-05-16T06:37:23.538Z,95477.31
2023-05-16T06:38:25.136Z,95479.25
2023-05-16T06:39:26.711Z,95479.84
2023-05-16T06:40:28.429Z,95479.38
2023-05-16T06:41:30.053Z,95478.78
2023-05-16T06:42:31.684Z,95477.66
2023-05-16T06:43:33.324Z,95481.78
2023-05-16T06:44:34.896Z,95485.31
2023-05-16T06:45:36.523Z,95488.94
2023-05-16T06:46:38.307Z,95482.09
2023-05-16T06:47:40.135Z,95481.75
2023-05-16T06:48:41.765Z,95491.00
2023-05-16T06:49:43.335Z,95490.19
2023-05-16T06:50:52.160Z,95490.88
2023-05-16T06:51:53.763Z,95493.63
2023-05-16T06:52:55.384Z,95486.19
2023-05-16T06:53:57.575Z,95499.28
2023-05-16T06:54:59.188Z,95501.69
2023-05-16T06:56:00.905Z,95496.06
2023-05-16T06:57:03.988Z,95494.38
2023-05-16T06:58:05.757Z,95486.66
2023-05-16T06:59:07.371Z,95492.38
2023-05-16T07:00:09.430Z,95492.94
2023-05-16T07:01:11.084Z,95489.53
2023-05-16T07:02:12.751Z,95488.84
2023-05-16T07:03:14.477Z,95491.78
2023-05-16T07:04:16.511Z,95496.84
2023-05-16T07:05:18.280Z,95496.00
2023-05-16T07:06:19.977Z,95471.84
2023-05-16T07:07:21.627Z,95487.59
2023-05-16T07:08:23.220Z,95485.09
2023-05-16T07:09:24.817Z,95475.50
2023-05-16T07:10:27.323Z,95484.13
2023-05-16T07:11:28.812Z,95483.84
2023-05-16T07:12:31.327Z,95477.53
2023-05-16T07:13:35.099Z,95473.91
2023-05-16T07:14:37.551Z,95482.78
2023-05-16T07:15:39.205Z,95479.78
2023-05-16T07:16:40.864Z,95479.69
2023-05-16T07:17:42.660Z,95480.59
2023-05-16T07:18:44.386Z,95470.13
2023-05-16T07:19:46.095Z,95478.94
2023-05-16T07:20:48.465Z,95473.78
2023-05-16T07:21:50.122Z,95476.81
2023-05-16T07:22:51.795Z,95477.47
2023-05-16T07:23:53.398Z,95475.03
2023-05-16T07:24:57.190Z,95483.78
2023-05-16T07:25:59.136Z,95470.66
2023-05-16T07:27:00.751Z,95472.47
2023-05-16T07:28:02.660Z,95473.25
2023-05-16T07:29:04.481Z,95477.16
2023-05-16T07:30:06.537Z,95472.84
2023-05-16T07:31:08.389Z,95472.72
2023-05-16T07:32:10.076Z,95475.31
2023-05-16T07:33:11.806Z,95471.88
2023-05-16T07:34:13.441Z,95479.63
2023-05-16T07:35:16.471Z,95471.75
2023-05-16T07:36:18.124Z,95466.03
2023-05-16T07:37:20.588Z,95480.28
2023-05-16T07:38:22.578Z,95470.91
2023-05-16T07:39:24.320Z,95475.59
2023-05-16T07:40:29.187Z,95469.97
2023-05-16T07:41:31.027Z,95461.84
2023-05-16T07:42:32.856Z,95464.03
2023-05-16T07:43:37.319Z,95462.81
2023-05-16T07:44:38.941Z,95461.44
2023-05-16T07:45:40.678Z,95459.28
2023-05-16T07:46:45.017Z,95462.69
2023-05-16T07:47:47.033Z,95460.91
2023-05-16T07:48:48.738Z,95455.66
2023-05-16T07:49:50.516Z,95460.13
2023-05-16T07:50:53.833Z,95457.56
2023-05-16T07:51:57.206Z,95459.38
2023-05-16T07:52:58.821Z,95459.56
2023-05-16T07:54:00.652Z,95458.59
2023-05-16T07:55:07.030Z,95470.84
2023-05-16T07:56:08.815Z,95464.22
2023-05-16T07:57:10.791Z,95459.94
2023-05-16T07:58:12.593Z,95462.25
2023-05-16T07:59:14.263Z,95464.19
2023-05-16T08:00:16.846Z,95461.22
2023-05-16T08:01:18.532Z,95473.50
2023-05-16T08:02:20.571Z,95464.81
2023-05-16T08:03:22.601Z,95467.81
2023-05-16T08:04:24.340Z,95472.59
2023-05-16T08:05:26.259Z,95480.47
2023-05-16T08:06:28.029Z,95469.09
2023-05-16T08:07:29.683Z,95484.06
2023-05-16T08:08:31.331Z,95487.31
2023-05-16T08:09:33.273Z,95488.41
2023-05-16T08:10:34.908Z,95487.50
2023-05-16T08:11:37.051Z,95473.59
2023-05-16T08:12:38.692Z,95484.06
2023-05-16T08:13:40.364Z,95477.38
2023-05-16T08:14:42.031Z,95483.66
2023-05-16T08:15:44.954Z,95482.34
2023-05-16T08:16:46.667Z,95484.75
2023-05-16T08:17:48.338Z,95485.63
2023-05-16T08:18:50.125Z,95490.75
2023-05-16T08:19:51.787Z,95490.94
2023-05-16T08:20:53.423Z,95482.63
2023-05-16T08:21:55.131Z,95496.06
2023-05-16T08:22:56.734Z,95484.06
2023-05-16T08:23:58.411Z,95488.91
2023-05-16T08:25:00.673Z,95484.28
2023-05-16T08:26:03.103Z,95486.69
2023-05-16T08:27:04.775Z,95492.28
2023-05-16T08:28:06.414Z,95491.84
2023-05-16T08:29:08.427Z,95501.16
2023-05-16T08:30:11.974Z,95484.81
2023-05-16T08:31:13.612Z,95489.53
2023-05-16T08:32:15.978Z,95498.41
2023-05-16T08:33:17.644Z,95496.19
2023-05-16T08:34:19.249Z,95488.47
2023-05-16T08:35:21.060Z,95481.03
2023-05-16T08:36:22.798Z,95490.94
2023-05-16T08:37:24.545Z,95488.47
2023-05-16T08:38:26.120Z,95492.34
2023-05-16T08:39:27.766Z,95494.41
2023-05-16T08:40:29.849Z,95497.06
2023-05-16T08:41:31.485Z,95491.56
2023-05-16T08:42:34.102Z,95484.91
2023-05-16T08:43:36.706Z,95484.56
2023-05-16T08:44:38.462Z,95485.47
2023-05-16T08:45:41.711Z,95482.72
2023-05-16T08:46:44.712Z,95490.34
2023-05-16T08:47:48.643Z,95496.09
2023-05-16T08:48:53.216Z,95491.81
2023-05-16T08:49:57.301Z,95482.94
2023-05-16T08:51:03.437Z,95487.13
2023-05-16T08:52:10.698Z,95490.47
2023-05-16T08:53:15.042Z,95485.03
2023-05-16T08:54:17.108Z,95496.03
2023-05-16T08:55:20.775Z,95480.94
2023-05-16T08:56:23.422Z,95491.03
2023-05-16T08:57:26.549Z,95482.84
2023-05-16T08:58:30.068Z,95495.09
2023-05-16T08:59:31.706Z,95489.31
2023-05-16T09:00:33.459Z,95496.50
2023-05-16T09:01:35.328Z,95493.88
2023-05-16T09:02:39.047Z,95491.78
2023-05-16T09:03:41.046Z,95496.72
2023-05-16T09:04:43.341Z,95495.94
2023-05-16T09:05:45.237Z,95495.56
2023-05-16T09:06:47.317Z,95497.72
2023-05-16T09:07:48.912Z,95505.09
2023-05-16T09:08:50.720Z,95503.34
2023-05-16T09:09:52.438Z,95507.25
2023-05-16T09:10:54.094Z,95498.72
2023-05-16T09:11:56.516Z,95500.25
2023-05-16T09:12:58.014Z,95500.59
2023-05-16T09:13:59.636Z,95500.31
2023-05-16T09:15:05.510Z,95497.22
2023-05-16T09:16:33.112Z,95498.88
2023-05-16T09:17:42.555Z,95493.81
2023-05-16T09:18:46.696Z,95494.63
2023-05-16T09:19:52.762Z,95490.59
2023-05-16T09:20:54.514Z,95487.59
2023-05-16T09:21:56.168Z,95487.84
2023-05-16T09:22:59.466Z,95482.06
2023-05-16T09:24:08.337Z,95487.63
2023-05-16T09:26:20.695Z,95481.44
2023-05-16T09:27:22.353Z,95485.94
2023-05-16T09:28:26.005Z,95486.84
2023-05-16T09:29:27.875Z,95483.47
2023-05-16T09:30:32.087Z,95479.66
2023-05-16T09:31:38.359Z,95479.13
2023-05-16T09:32:44.039Z,95485.03
2023-05-16T09:33:45.722Z,95487.78
2023-05-16T09:34:49.304Z,95478.28
2023-05-16T09:36:01.032Z,95489.38
2023-05-16T09:37:02.723Z,95481.47
2023-05-16T09:38:04.604Z,95480.00
2023-05-16T09:39:07.292Z,95476.03
2023-05-16T09:40:10.487Z,95485.19
2023-05-16T09:41:12.212Z,95474.16
2023-05-16T09:42:14.959Z,95475.59
2023-05-16T09:43:17.669Z,95483.97
2023-05-16T09:44:19.766Z,95479.78
2023-05-16T09:45:21.947Z,95480.13
2023-05-16T09:46:27.530Z,95475.03
2023-05-16T09:47:29.296Z,95483.59
2023-05-16T09:48:32.346Z,95481.84
2023-05-16T09:49:34.021Z,95478.09
2023-05-16T09:50:36.984Z,95472.09
2023-05-16T09:51:39.313Z,95479.59
2023-05-16T09:52:41.553Z,95475.13
2023-05-16T09:53:43.600Z,95468.69
2023-05-16T09:54:46.744Z,95476.50
2023-05-16T09:55:48.363Z,95479.31
2023-05-16T09:56:51.535Z,95477.44
2023-05-16T09:57:53.258Z,95474.47
2023-05-16T09:58:54.892Z,95470.00
2023-05-16T10:00:01.569Z,95475.84
2023-05-16T10:01:03.969Z,95473.00
2023-05-16T10:02:06.198Z,95470.03
2023-05-16T10:03:08.252Z,95472.25
2023-05-16T10:04:14.120Z,95477.72
2023-05-16T10:05:17.702Z,95467.88
2023-05-16T10:06:19.319Z,95463.88
2023-05-16T10:07:21.807Z,95468.59
2023-05-16T10:08:24.159Z,95474.38
2023-05-16T10:09:26.066Z,95473.22
2023-05-16T10:10:28.548Z,95474.44
2023-05-16T10:11:30.653Z,95463.63
2023-05-16T10:12:33.212Z,95470.97
2023-05-16T10:13:36.452Z,95469.22
2023-05-16T10:14:39.262Z,95468.09
2023-05-16T10:15:41.332Z,95472.91
2023-05-16T10:16:44.085Z,95464.19
2023-05-16T10:17:51.330Z,95470.25
2023-05-16T10:18:53.600Z,95471.78
2023-05-16T10:19:55.719Z,95474.88
2023-05-16T10:21:11.235Z,95473.69
2023-05-16T10:22:13.726Z,95481.78
2023-05-16T10:23:20.130Z,95472.47
2023-05-16T10:24:29.828Z,95480.88
2023-05-16T10:25:41.345Z,95470.38
2023-05-16T10:26:43.032Z,95471.00
2023-05-16T10:27:44.924Z,95482.53
2023-05-16T10:28:47.128Z,95477.00
2023-05-16T10:29:54.668Z,95473.44
2023-05-16T10:30:57.295Z,95480.19
2023-05-16T10:31:59.671Z,95471.44
2023-05-16T10:33:01.705Z,95479.94
2023-05-16T10:34:03.724Z,95475.28
2023-05-16T10:35:05.792Z,95473.94
2023-05-16T10:36:10.880Z,95476.31
2023-05-16T10:37:12.503Z,95479.56
2023-05-16T10:38:17.684Z,95472.13
2023-05-16T10:39:19.586Z,95484.72
2023-05-16T10:40:22.174Z,95483.13
2023-05-16T10:41:23.950Z,95479.16
2023-05-16T10:42:25.697Z,95485.16
2023-05-16T10:43:30.414Z,95471.31
2023-05-16T10:44:33.866Z,95476.22
2023-05-16T10:45:40.388Z,95473.94
2023-05-16T10:46:42.389Z,95474.09
2023-05-16T10:48:09.714Z,95471.81
2023-05-16T10:49:26.464Z,95467.66
2023-05-16T10:50:36.792Z,95480.38
2023-05-16T10:51:39.007Z,95477.25
2023-05-16T10:52:40.742Z,95478.91
2023-05-16T10:53:53.750Z,95471.72
2023-05-16T10:55:02.804Z,95489.00
2023-05-16T10:56:04.434Z,95483.53
2023-05-16T10:57:17.768Z,95485.84
2023-05-16T10:58:24.453Z,95488.41
2023-05-16T10:59:28.391Z,95489.53
2023-05-16T11:00:30.621Z,95487.84
2023-05-16T11:01:32.315Z,95491.31
2023-05-16T11:02:41.097Z,95486.63
2023-05-16T11:04:10.356Z,95488.63
2023-05-16T11:05:17.688Z,95490.63
2023-05-16T11:06:23.582Z,95483.28
2023-05-16T11:07:33.257Z,95490.38
2023-05-16T11:08:35.017Z,95494.44
2023-05-16T11:09:37.074Z,95492.63
2023-05-16T11:10:39.202Z,95494.13
2023-05-16T11:11:40.846Z,95495.28
2023-05-16T11:12:48.671Z,95483.78
2023-05-16T11:13:56.467Z,95482.78
2023-05-16T11:15:03.706Z,95497.78
2023-05-16T11:16:30.005Z,95492.81
2023-05-16T11:17:41.399Z,95497.16
2023-05-16T11:18:50.718Z,95502.00
2023-05-16T11:19:57.087Z,95500.75
2023-05-16T11:21:03.941Z,95506.28
2023-05-16T11:22:10.409Z,95508.94
2023-05-16T11:23:22.274Z,95506.88
2023-05-16T11:24:31.132Z,95504.31
2023-05-16T11:25:41.096Z,95518.97
2023-05-16T11:26:43.244Z,95520.56
2023-05-16T11:27:46.593Z,95526.66
2023-05-16T11:28:51.882Z,95515.53
2023-05-16T11:30:03.689Z,95509.78
2023-05-16T11:31:07.794Z,95518.56
2023-05-16T11:32:09.422Z,95514.81
2023-05-16T11:33:12.941Z,95514.56
2023-05-16T11:34:14.635Z,95513.16
2023-05-16T11:35:17.827Z,95517.91
2023-05-16T11:36:19.471Z,95520.66
2023-05-16T11:37:21.287Z,95518.78
2023-05-16T11:38:23.262Z,95520.28
2023-05-16T11:39:25.302Z,95522.13
2023-05-16T11:40:27.073Z,95522.00
2023-05-16T11:41:28.716Z,95522.81
2023-05-16T11:42:36.319Z,95529.25
2023-05-16T11:43:45.763Z,95509.66
2023-05-16T11:44:47.410Z,95503.06
2023-05-16T11:45:54.510Z,95508.91
2023-05-16T11:47:00.522Z,95509.16
2023-05-16T11:48:06.399Z,95505.47
2023-05-16T11:49:09.593Z,95511.75
2023-05-16T11:50:13.823Z,95504.59
2023-05-16T11:51:18.990Z,95507.63
2023-05-16T11:52:21.582Z,95514.16
2023-05-16T11:53:23.384Z,95513.16
2023-05-16T11:54:25.615Z,95517.16
2023-05-16T11:56:37.932Z,95518.44
2023-05-16T11:57:39.587Z,95511.34
2023-05-16T11:58:42.235Z,95514.75
2023-05-16T11:59:44.480Z,95514.19
2023-05-16T12:00:50.269Z,95517.69
2023-05-16T12:01:52.101Z,95513.78
2023-05-16T12:02:55.001Z,95518.03
2023-05-16T12:04:00.247Z,95501.31
2023-05-16T12:05:09.778Z,95503.06
2023-05-16T12:06:11.776Z,95491.22
2023-05-16T12:07:13.399Z,95499.09
2023-05-16T12:08:16.568Z,95498.66
2023-05-16T12:09:18.620Z,95496.84
2023-05-16T12:10:20.334Z,95488.47
2023-05-16T12:11:23.739Z,95496.38
2023-05-16T12:12:25.542Z,95500.63
2023-05-16T12:13:27.371Z,95503.78
2023-05-16T12:14:29.155Z,95500.28
2023-05-16T12:15:31.190Z,95499.63
2023-05-16T12:16:33.787Z,95504.91
2023-05-16T12:17:39.817Z,95496.63
2023-05-16T12:18:43.509Z,95496.97
2023-05-16T12:19:46.448Z,95491.44
2023-05-16T12:20:48.225Z,95494.22
2023-05-16T12:21:53.718Z,95497.78
2023-05-16T12:22:58.086Z,95495.09
2023-05-16T12:24:00.084Z,95508.56
2023-05-16T12:25:32.101Z,95494.66